sensor_id;sensor_type;location;lat;lon;timestamp;P1;durP1;ratioP1;P2;durP2;ratioP2
59089;SDS011;44878;50.102;18.982;2022-12-18T00:03:44;74.57;;;53.40;;
59089;SDS011;44878;50.102;18.982;2022-12-18T00:06:10;71.70;;;50.73;;
59089;SDS011;44878;50.102;18.982;2022-12-18T00:08:37;71.03;;;50.03;;
59089;SDS011;44878;50.102;18.982;2022-12-18T00:11:04;66.70;;;48.87;;
59089;SDS011;44878;50.102;18.982;2022-12-18T00:13:32;70.73;;;51.70;;
59089;SDS011;44878;50.102;18.982;2022-12-18T00:16:04;65.97;;;48.27;;
59089;SDS011;44878;50.102;18.982;2022-12-18T00:18:33;75.20;;;52.13;;
59089;SDS011;44878;50.102;18.982;2022-12-18T00:20:59;71.40;;;53.00;;
59089;SDS011;44878;50.102;18.982;2022-12-18T00:23:27;68.40;;;51.53;;
59089;SDS011;44878;50.102;18.982;2022-12-18T00:25:54;71.43;;;50.55;;
59089;SDS011;44878;50.102;18.982;2022-12-18T00:28:24;71.33;;;51.83;;
59089;SDS011;44878;50.102;18.982;2022-12-18T00:30:50;68.37;;;49.53;;
59089;SDS011;44878;50.102;18.982;2022-12-18T00:33:17;70.00;;;48.40;;
59089;SDS011;44878;50.102;18.982;2022-12-18T00:35:43;66.70;;;49.13;;
59089;SDS011;44878;50.102;18.982;2022-12-18T00:38:09;70.47;;;48.10;;
59089;SDS011;44878;50.102;18.982;2022-12-18T00:40:35;69.90;;;48.50;;
59089;SDS011;44878;50.102;18.982;2022-12-18T00:43:02;70.70;;;49.50;;
59089;SDS011;44878;50.102;18.982;2022-12-18T00:45:28;69.93;;;50.60;;
59089;SDS011;44878;50.102;18.982;2022-12-18T00:47:56;71.93;;;50.97;;
59089;SDS011;44878;50.102;18.982;2022-12-18T00:50:23;75.00;;;52.90;;
59089;SDS011;44878;50.102;18.982;2022-12-18T00:52:51;73.03;;;52.40;;
59089;SDS011;44878;50.102;18.982;2022-12-18T00:55:17;69.63;;;50.90;;
59089;SDS011;44878;50.102;18.982;2022-12-18T00:57:44;71.93;;;51.65;;
59089;SDS011;44878;50.102;18.982;2022-12-18T01:00:11;68.97;;;50.90;;
59089;SDS011;44878;50.102;18.982;2022-12-18T01:02:40;67.93;;;49.90;;
59089;SDS011;44878;50.102;18.982;2022-12-18T01:05:07;66.27;;;48.13;;
59089;SDS011;44878;50.102;18.982;2022-12-18T01:10:00;70.53;;;50.07;;
59089;SDS011;44878;50.102;18.982;2022-12-18T01:12:26;67.50;;;50.00;;
59089;SDS011;44878;50.102;18.982;2022-12-18T01:14:52;66.00;;;49.77;;
59089;SDS011;44878;50.102;18.982;2022-12-18T01:17:19;69.37;;;50.43;;
59089;SDS011;44878;50.102;18.982;2022-12-18T01:19:44;66.37;;;50.37;;
59089;SDS011;44878;50.102;18.982;2022-12-18T01:22:11;66.17;;;49.00;;
59089;SDS011;44878;50.102;18.982;2022-12-18T01:24:36;69.47;;;49.60;;
59089;SDS011;44878;50.102;18.982;2022-12-18T01:27:03;68.33;;;48.93;;
59089;SDS011;44878;50.102;18.982;2022-12-18T01:29:29;66.97;;;49.73;;
59089;SDS011;44878;50.102;18.982;2022-12-18T01:31:55;68.10;;;49.43;;
59089;SDS011;44878;50.102;18.982;2022-12-18T01:34:22;64.57;;;47.97;;
59089;SDS011;44878;50.102;18.982;2022-12-18T01:36:49;70.57;;;51.33;;
59089;SDS011;44878;50.102;18.982;2022-12-18T01:41:44;71.30;;;52.30;;
59089;SDS011;44878;50.102;18.982;2022-12-18T01:47:21;75.13;;;53.30;;
59089;SDS011;44878;50.102;18.982;2022-12-18T01:49:59;72.00;;;50.90;;
59089;SDS011;44878;50.102;18.982;2022-12-18T01:52:30;74.77;;;51.90;;
59089;SDS011;44878;50.102;18.982;2022-12-18T01:54:58;69.40;;;50.10;;
59089;SDS011;44878;50.102;18.982;2022-12-18T01:59:52;65.50;;;47.33;;
59089;SDS011;44878;50.102;18.982;2022-12-18T02:02:22;68.03;;;48.80;;
59089;SDS011;44878;50.102;18.982;2022-12-18T02:04:48;65.27;;;46.43;;
59089;SDS011;44878;50.102;18.982;2022-12-18T02:10:00;62.13;;;45.50;;
59089;SDS011;44878;50.102;18.982;2022-12-18T02:15:36;64.87;;;48.43;;
59089;SDS011;44878;50.102;18.982;2022-12-18T02:20:45;70.27;;;50.03;;
59089;SDS011;44878;50.102;18.982;2022-12-18T02:29:20;77.47;;;54.57;;
59089;SDS011;44878;50.102;18.982;2022-12-18T02:31:50;70.47;;;52.00;;
59089;SDS011;44878;50.102;18.982;2022-12-18T02:34:19;69.57;;;49.47;;
59089;SDS011;44878;50.102;18.982;2022-12-18T02:36:49;69.47;;;47.93;;
59089;SDS011;44878;50.102;18.982;2022-12-18T02:39:17;73.03;;;47.40;;
59089;SDS011;44878;50.102;18.982;2022-12-18T02:41:44;72.38;;;49.22;;
59089;SDS011;44878;50.102;18.982;2022-12-18T02:44:11;71.03;;;51.33;;
59089;SDS011;44878;50.102;18.982;2022-12-18T02:49:17;69.43;;;48.80;;
59089;SDS011;44878;50.102;18.982;2022-12-18T02:52:05;70.53;;;49.40;;
59089;SDS011;44878;50.102;18.982;2022-12-18T02:58:00;68.37;;;48.57;;
59089;SDS011;44878;50.102;18.982;2022-12-18T03:00:37;66.93;;;47.80;;
59089;SDS011;44878;50.102;18.982;2022-12-18T03:05:41;65.87;;;46.60;;
59089;SDS011;44878;50.102;18.982;2022-12-18T03:08:18;68.17;;;48.53;;
59089;SDS011;44878;50.102;18.982;2022-12-18T03:10:55;71.00;;;48.50;;
59089;SDS011;44878;50.102;18.982;2022-12-18T03:13:28;68.97;;;50.20;;
59089;SDS011;44878;50.102;18.982;2022-12-18T03:16:00;70.97;;;49.33;;
59089;SDS011;44878;50.102;18.982;2022-12-18T03:21:04;71.47;;;49.27;;
59089;SDS011;44878;50.102;18.982;2022-12-18T03:23:36;69.00;;;48.93;;
59089;SDS011;44878;50.102;18.982;2022-12-18T03:26:10;71.70;;;51.67;;
59089;SDS011;44878;50.102;18.982;2022-12-18T03:28:42;73.77;;;50.13;;
59089;SDS011;44878;50.102;18.982;2022-12-18T03:31:13;72.27;;;49.17;;
59089;SDS011;44878;50.102;18.982;2022-12-18T03:33:47;64.65;;;46.78;;
59089;SDS011;44878;50.102;18.982;2022-12-18T03:36:20;71.90;;;52.27;;
59089;SDS011;44878;50.102;18.982;2022-12-18T03:38:47;72.00;;;49.35;;
59089;SDS011;44878;50.102;18.982;2022-12-18T03:41:32;69.53;;;48.40;;
59089;SDS011;44878;50.102;18.982;2022-12-18T03:47:06;71.50;;;49.63;;
59089;SDS011;44878;50.102;18.982;2022-12-18T03:55:08;72.90;;;50.00;;
59089;SDS011;44878;50.102;18.982;2022-12-18T03:57:35;75.30;;;53.70;;
59089;SDS011;44878;50.102;18.982;2022-12-18T04:00:11;75.60;;;51.80;;
59089;SDS011;44878;50.102;18.982;2022-12-18T04:02:50;71.47;;;52.27;;
59089;SDS011;44878;50.102;18.982;2022-12-18T04:05:19;71.83;;;51.47;;
59089;SDS011;44878;50.102;18.982;2022-12-18T04:07:47;68.90;;;49.33;;
59089;SDS011;44878;50.102;18.982;2022-12-18T04:10:15;71.40;;;50.37;;
59089;SDS011;44878;50.102;18.982;2022-12-18T04:12:42;74.25;;;52.25;;
59089;SDS011;44878;50.102;18.982;2022-12-18T04:15:08;71.73;;;51.70;;
59089;SDS011;44878;50.102;18.982;2022-12-18T04:20:02;67.20;;;48.80;;
59089;SDS011;44878;50.102;18.982;2022-12-18T04:22:29;69.90;;;48.53;;
59089;SDS011;44878;50.102;18.982;2022-12-18T04:24:54;72.17;;;51.23;;
59089;SDS011;44878;50.102;18.982;2022-12-18T04:27:21;72.80;;;51.00;;
59089;SDS011;44878;50.102;18.982;2022-12-18T04:29:47;68.47;;;50.20;;
59089;SDS011;44878;50.102;18.982;2022-12-18T04:32:13;69.70;;;47.90;;
59089;SDS011;44878;50.102;18.982;2022-12-18T04:34:39;67.80;;;48.83;;
59089;SDS011;44878;50.102;18.982;2022-12-18T04:37:05;70.93;;;50.80;;
59089;SDS011;44878;50.102;18.982;2022-12-18T04:39:31;73.73;;;51.57;;
59089;SDS011;44878;50.102;18.982;2022-12-18T04:41:57;70.20;;;50.10;;
59089;SDS011;44878;50.102;18.982;2022-12-18T04:44:23;73.57;;;49.20;;
59089;SDS011;44878;50.102;18.982;2022-12-18T04:46:49;73.60;;;49.93;;
59089;SDS011;44878;50.102;18.982;2022-12-18T04:49:15;70.40;;;49.57;;
59089;SDS011;44878;50.102;18.982;2022-12-18T04:51:42;69.90;;;49.20;;
59089;SDS011;44878;50.102;18.982;2022-12-18T04:54:08;67.63;;;48.33;;
59089;SDS011;44878;50.102;18.982;2022-12-18T04:56:34;71.73;;;47.20;;
59089;SDS011;44878;50.102;18.982;2022-12-18T04:59:00;67.33;;;49.70;;
59089;SDS011;44878;50.102;18.982;2022-12-18T05:01:26;69.67;;;49.17;;
59089;SDS011;44878;50.102;18.982;2022-12-18T05:03:52;71.97;;;49.37;;
59089;SDS011;44878;50.102;18.982;2022-12-18T05:06:18;67.03;;;47.30;;
59089;SDS011;44878;50.102;18.982;2022-12-18T05:08:44;69.73;;;48.83;;
59089;SDS011;44878;50.102;18.982;2022-12-18T05:11:12;69.37;;;48.03;;
59089;SDS011;44878;50.102;18.982;2022-12-18T05:13:41;68.13;;;48.57;;
59089;SDS011;44878;50.102;18.982;2022-12-18T05:18:34;66.57;;;49.07;;
59089;SDS011;44878;50.102;18.982;2022-12-18T05:21:01;71.28;;;50.50;;
59089;SDS011;44878;50.102;18.982;2022-12-18T05:23:28;66.25;;;46.70;;
59089;SDS011;44878;50.102;18.982;2022-12-18T05:25:56;68.97;;;47.78;;
59089;SDS011;44878;50.102;18.982;2022-12-18T05:28:25;66.27;;;47.50;;
59089;SDS011;44878;50.102;18.982;2022-12-18T05:30:53;66.30;;;47.63;;
59089;SDS011;44878;50.102;18.982;2022-12-18T05:33:21;67.00;;;46.37;;
59089;SDS011;44878;50.102;18.982;2022-12-18T05:35:50;67.80;;;46.80;;
59089;SDS011;44878;50.102;18.982;2022-12-18T05:38:17;63.57;;;45.73;;
59089;SDS011;44878;50.102;18.982;2022-12-18T05:40:44;63.80;;;44.88;;
59089;SDS011;44878;50.102;18.982;2022-12-18T05:43:10;62.87;;;46.67;;
59089;SDS011;44878;50.102;18.982;2022-12-18T05:45:37;64.03;;;45.03;;
59089;SDS011;44878;50.102;18.982;2022-12-18T05:48:04;65.85;;;46.15;;
59089;SDS011;44878;50.102;18.982;2022-12-18T05:50:33;67.60;;;46.80;;
59089;SDS011;44878;50.102;18.982;2022-12-18T05:53:00;67.30;;;47.53;;
59089;SDS011;44878;50.102;18.982;2022-12-18T05:55:26;65.47;;;47.23;;
59089;SDS011;44878;50.102;18.982;2022-12-18T05:57:52;68.33;;;47.87;;
59089;SDS011;44878;50.102;18.982;2022-12-18T06:00:18;65.73;;;46.50;;
59089;SDS011;44878;50.102;18.982;2022-12-18T06:02:47;67.77;;;46.60;;
59089;SDS011;44878;50.102;18.982;2022-12-18T06:05:13;62.47;;;45.70;;
59089;SDS011;44878;50.102;18.982;2022-12-18T06:07:40;64.27;;;45.27;;
59089;SDS011;44878;50.102;18.982;2022-12-18T06:10:06;62.33;;;44.63;;
59089;SDS011;44878;50.102;18.982;2022-12-18T06:12:32;62.80;;;43.77;;
59089;SDS011;44878;50.102;18.982;2022-12-18T06:15:01;64.60;;;43.83;;
59089;SDS011;44878;50.102;18.982;2022-12-18T06:17:28;67.17;;;45.87;;
59089;SDS011;44878;50.102;18.982;2022-12-18T06:19:55;61.87;;;43.50;;
59089;SDS011;44878;50.102;18.982;2022-12-18T06:22:21;57.70;;;43.73;;
59089;SDS011;44878;50.102;18.982;2022-12-18T06:24:47;58.43;;;42.43;;
59089;SDS011;44878;50.102;18.982;2022-12-18T06:27:14;61.03;;;43.67;;
59089;SDS011;44878;50.102;18.982;2022-12-18T06:29:40;55.93;;;41.50;;
59089;SDS011;44878;50.102;18.982;2022-12-18T06:32:06;61.53;;;42.97;;
59089;SDS011;44878;50.102;18.982;2022-12-18T06:34:32;63.37;;;44.67;;
59089;SDS011;44878;50.102;18.982;2022-12-18T06:36:59;65.33;;;44.27;;
59089;SDS011;44878;50.102;18.982;2022-12-18T06:39:28;63.10;;;44.93;;
59089;SDS011;44878;50.102;18.982;2022-12-18T06:41:54;61.97;;;42.93;;
59089;SDS011;44878;50.102;18.982;2022-12-18T06:44:20;63.87;;;44.87;;
59089;SDS011;44878;50.102;18.982;2022-12-18T06:46:47;60.03;;;43.93;;
59089;SDS011;44878;50.102;18.982;2022-12-18T06:49:13;62.67;;;44.97;;
59089;SDS011;44878;50.102;18.982;2022-12-18T06:51:39;59.43;;;43.30;;
59089;SDS011;44878;50.102;18.982;2022-12-18T06:54:05;59.20;;;42.20;;
59089;SDS011;44878;50.102;18.982;2022-12-18T06:56:31;63.17;;;42.70;;
59089;SDS011;44878;50.102;18.982;2022-12-18T06:58:57;61.83;;;45.17;;
59089;SDS011;44878;50.102;18.982;2022-12-18T07:01:23;61.67;;;44.47;;
59089;SDS011;44878;50.102;18.982;2022-12-18T07:03:53;63.00;;;45.33;;
59089;SDS011;44878;50.102;18.982;2022-12-18T07:06:21;58.60;;;43.57;;
59089;SDS011;44878;50.102;18.982;2022-12-18T07:08:49;61.33;;;42.87;;
59089;SDS011;44878;50.102;18.982;2022-12-18T07:11:16;62.38;;;44.58;;
59089;SDS011;44878;50.102;18.982;2022-12-18T07:13:43;65.40;;;45.53;;
59089;SDS011;44878;50.102;18.982;2022-12-18T07:16:11;62.38;;;44.63;;
59089;SDS011;44878;50.102;18.982;2022-12-18T07:18:40;59.57;;;42.30;;
59089;SDS011;44878;50.102;18.982;2022-12-18T07:21:07;60.73;;;43.60;;
59089;SDS011;44878;50.102;18.982;2022-12-18T07:23:35;59.37;;;42.83;;
59089;SDS011;44878;50.102;18.982;2022-12-18T07:26:02;63.17;;;43.50;;
59089;SDS011;44878;50.102;18.982;2022-12-18T07:28:30;60.97;;;44.53;;
59089;SDS011;44878;50.102;18.982;2022-12-18T07:30:57;63.15;;;43.72;;
59089;SDS011;44878;50.102;18.982;2022-12-18T07:33:24;59.97;;;43.00;;
59089;SDS011;44878;50.102;18.982;2022-12-18T07:35:51;62.08;;;43.90;;
59089;SDS011;44878;50.102;18.982;2022-12-18T07:38:17;57.53;;;41.90;;
59089;SDS011;44878;50.102;18.982;2022-12-18T07:40:43;56.23;;;41.30;;
59089;SDS011;44878;50.102;18.982;2022-12-18T07:43:09;57.40;;;42.10;;
59089;SDS011;44878;50.102;18.982;2022-12-18T07:45:36;57.57;;;43.50;;
59089;SDS011;44878;50.102;18.982;2022-12-18T07:48:02;60.40;;;43.23;;
59089;SDS011;44878;50.102;18.982;2022-12-18T07:50:28;58.07;;;42.73;;
59089;SDS011;44878;50.102;18.982;2022-12-18T07:52:54;58.70;;;41.63;;
59089;SDS011;44878;50.102;18.982;2022-12-18T07:55:20;56.23;;;41.27;;
59089;SDS011;44878;50.102;18.982;2022-12-18T07:57:46;54.33;;;41.17;;
59089;SDS011;44878;50.102;18.982;2022-12-18T08:00:13;54.13;;;39.93;;
59089;SDS011;44878;50.102;18.982;2022-12-18T08:02:39;55.40;;;41.95;;
59089;SDS011;44878;50.102;18.982;2022-12-18T08:05:05;57.43;;;41.87;;
59089;SDS011;44878;50.102;18.982;2022-12-18T08:07:32;57.23;;;42.80;;
59089;SDS011;44878;50.102;18.982;2022-12-18T08:09:58;50.90;;;39.10;;
59089;SDS011;44878;50.102;18.982;2022-12-18T08:12:24;52.67;;;39.13;;
59089;SDS011;44878;50.102;18.982;2022-12-18T08:14:50;49.63;;;38.23;;
59089;SDS011;44878;50.102;18.982;2022-12-18T08:17:16;46.37;;;36.33;;
59089;SDS011;44878;50.102;18.982;2022-12-18T08:19:42;46.03;;;36.80;;
59089;SDS011;44878;50.102;18.982;2022-12-18T08:22:08;52.40;;;40.57;;
59089;SDS011;44878;50.102;18.982;2022-12-18T08:24:34;61.33;;;49.27;;
59089;SDS011;44878;50.102;18.982;2022-12-18T08:27:00;45.57;;;33.30;;
59089;SDS011;44878;50.102;18.982;2022-12-18T08:29:26;44.87;;;34.20;;
59089;SDS011;44878;50.102;18.982;2022-12-18T08:31:52;47.30;;;34.50;;
59089;SDS011;44878;50.102;18.982;2022-12-18T08:34:18;45.33;;;33.30;;
59089;SDS011;44878;50.102;18.982;2022-12-18T08:36:45;44.10;;;33.23;;
59089;SDS011;44878;50.102;18.982;2022-12-18T08:39:11;46.67;;;34.93;;
59089;SDS011;44878;50.102;18.982;2022-12-18T08:41:37;42.27;;;33.20;;
59089;SDS011;44878;50.102;18.982;2022-12-18T08:44:03;44.13;;;33.97;;
59089;SDS011;44878;50.102;18.982;2022-12-18T08:46:47;42.17;;;34.07;;
59089;SDS011;44878;50.102;18.982;2022-12-18T08:49:13;43.67;;;33.80;;
59089;SDS011;44878;50.102;18.982;2022-12-18T08:51:40;46.50;;;35.20;;
59089;SDS011;44878;50.102;18.982;2022-12-18T08:54:06;46.93;;;36.50;;
59089;SDS011;44878;50.102;18.982;2022-12-18T08:56:33;43.53;;;33.90;;
59089;SDS011;44878;50.102;18.982;2022-12-18T08:58:59;48.80;;;36.67;;
59089;SDS011;44878;50.102;18.982;2022-12-18T09:01:25;45.93;;;36.83;;
59089;SDS011;44878;50.102;18.982;2022-12-18T09:03:51;50.97;;;39.23;;
59089;SDS011;44878;50.102;18.982;2022-12-18T09:06:18;50.37;;;39.13;;
59089;SDS011;44878;50.102;18.982;2022-12-18T09:08:46;48.65;;;37.13;;
59089;SDS011;44878;50.102;18.982;2022-12-18T09:11:14;50.83;;;38.67;;
59089;SDS011;44878;50.102;18.982;2022-12-18T09:13:43;50.33;;;38.30;;
59089;SDS011;44878;50.102;18.982;2022-12-18T09:16:09;48.90;;;36.75;;
59089;SDS011;44878;50.102;18.982;2022-12-18T09:18:35;52.25;;;37.28;;
59089;SDS011;44878;50.102;18.982;2022-12-18T09:21:08;50.17;;;37.80;;
59089;SDS011;44878;50.102;18.982;2022-12-18T09:23:35;52.08;;;40.38;;
59089;SDS011;44878;50.102;18.982;2022-12-18T09:26:02;50.88;;;38.17;;
59089;SDS011;44878;50.102;18.982;2022-12-18T09:28:28;50.88;;;38.28;;
59089;SDS011;44878;50.102;18.982;2022-12-18T09:30:54;54.10;;;39.88;;
59089;SDS011;44878;50.102;18.982;2022-12-18T09:33:20;52.88;;;39.85;;
59089;SDS011;44878;50.102;18.982;2022-12-18T09:35:46;54.05;;;42.08;;
59089;SDS011;44878;50.102;18.982;2022-12-18T09:38:13;48.20;;;38.80;;
59089;SDS011;44878;50.102;18.982;2022-12-18T09:40:45;53.43;;;40.70;;
59089;SDS011;44878;50.102;18.982;2022-12-18T09:43:40;52.22;;;39.60;;
59089;SDS011;44878;50.102;18.982;2022-12-18T09:46:27;53.70;;;40.95;;
59089;SDS011;44878;50.102;18.982;2022-12-18T09:48:58;59.83;;;43.30;;
59089;SDS011;44878;50.102;18.982;2022-12-18T09:51:38;58.78;;;44.40;;
59089;SDS011;44878;50.102;18.982;2022-12-18T09:54:18;71.63;;;57.88;;
59089;SDS011;44878;50.102;18.982;2022-12-18T09:56:48;55.45;;;43.25;;
59089;SDS011;44878;50.102;18.982;2022-12-18T09:59:24;57.72;;;43.17;;
59089;SDS011;44878;50.102;18.982;2022-12-18T10:01:55;52.80;;;41.22;;
59089;SDS011;44878;50.102;18.982;2022-12-18T10:04:22;59.03;;;45.97;;
59089;SDS011;44878;50.102;18.982;2022-12-18T10:07:33;64.13;;;48.40;;
59089;SDS011;44878;50.102;18.982;2022-12-18T10:09:58;61.47;;;47.97;;
59089;SDS011;44878;50.102;18.982;2022-12-18T10:12:36;59.03;;;46.05;;
59089;SDS011;44878;50.102;18.982;2022-12-18T10:15:29;59.33;;;46.93;;
59089;SDS011;44878;50.102;18.982;2022-12-18T10:20:41;54.63;;;43.23;;
59089;SDS011;44878;50.102;18.982;2022-12-18T10:23:32;53.75;;;40.97;;
59089;SDS011;44878;50.102;18.982;2022-12-18T10:26:07;55.63;;;42.73;;
59089;SDS011;44878;50.102;18.982;2022-12-18T10:28:36;54.47;;;41.30;;
59089;SDS011;44878;50.102;18.982;2022-12-18T10:31:37;56.27;;;43.70;;
59089;SDS011;44878;50.102;18.982;2022-12-18T10:33:56;54.83;;;43.80;;
59089;SDS011;44878;50.102;18.982;2022-12-18T10:36:23;57.37;;;44.13;;
59089;SDS011;44878;50.102;18.982;2022-12-18T10:38:50;58.80;;;45.40;;
59089;SDS011;44878;50.102;18.982;2022-12-18T10:43:47;58.97;;;45.40;;
59089;SDS011;44878;50.102;18.982;2022-12-18T10:46:14;60.77;;;47.43;;
59089;SDS011;44878;50.102;18.982;2022-12-18T10:51:21;57.90;;;44.40;;
59089;SDS011;44878;50.102;18.982;2022-12-18T10:53:52;56.63;;;43.57;;
59089;SDS011;44878;50.102;18.982;2022-12-18T10:56:19;57.60;;;43.77;;
59089;SDS011;44878;50.102;18.982;2022-12-18T10:58:55;62.85;;;46.65;;
59089;SDS011;44878;50.102;18.982;2022-12-18T11:01:24;77.53;;;57.55;;
59089;SDS011;44878;50.102;18.982;2022-12-18T11:06:17;78.17;;;57.93;;
59089;SDS011;44878;50.102;18.982;2022-12-18T11:09:00;76.00;;;57.67;;
59089;SDS011;44878;50.102;18.982;2022-12-18T11:11:28;77.87;;;56.40;;
59089;SDS011;44878;50.102;18.982;2022-12-18T11:14:15;81.07;;;59.20;;
59089;SDS011;44878;50.102;18.982;2022-12-18T11:16:52;75.47;;;56.73;;
59089;SDS011;44878;50.102;18.982;2022-12-18T11:22:19;69.43;;;52.70;;
59089;SDS011;44878;50.102;18.982;2022-12-18T11:25:00;68.80;;;50.03;;
59089;SDS011;44878;50.102;18.982;2022-12-18T11:27:29;66.00;;;48.47;;
59089;SDS011;44878;50.102;18.982;2022-12-18T11:32:40;62.73;;;46.97;;
59089;SDS011;44878;50.102;18.982;2022-12-18T11:37:37;64.47;;;47.73;;
59089;SDS011;44878;50.102;18.982;2022-12-18T11:40:13;66.17;;;50.47;;
59089;SDS011;44878;50.102;18.982;2022-12-18T11:42:47;66.63;;;49.87;;
59089;SDS011;44878;50.102;18.982;2022-12-18T11:45:29;72.95;;;55.20;;
59089;SDS011;44878;50.102;18.982;2022-12-18T11:48:19;72.83;;;53.47;;
59089;SDS011;44878;50.102;18.982;2022-12-18T11:51:00;69.60;;;52.73;;
59089;SDS011;44878;50.102;18.982;2022-12-18T11:53:29;69.47;;;50.50;;
59089;SDS011;44878;50.102;18.982;2022-12-18T11:56:01;68.67;;;50.63;;
59089;SDS011;44878;50.102;18.982;2022-12-18T11:58:50;67.00;;;49.63;;
59089;SDS011;44878;50.102;18.982;2022-12-18T12:01:40;70.53;;;50.77;;
59089;SDS011;44878;50.102;18.982;2022-12-18T12:04:25;66.87;;;47.80;;
59089;SDS011;44878;50.102;18.982;2022-12-18T12:10:01;65.13;;;50.43;;
59089;SDS011;44878;50.102;18.982;2022-12-18T12:18:01;65.93;;;46.80;;
59089;SDS011;44878;50.102;18.982;2022-12-18T12:20:45;65.57;;;48.15;;
59089;SDS011;44878;50.102;18.982;2022-12-18T12:26:13;62.13;;;47.07;;
59089;SDS011;44878;50.102;18.982;2022-12-18T12:29:00;67.97;;;50.33;;
59089;SDS011;44878;50.102;18.982;2022-12-18T12:37:04;73.63;;;54.50;;
59089;SDS011;44878;50.102;18.982;2022-12-18T12:39:42;72.30;;;51.30;;
59089;SDS011;44878;50.102;18.982;2022-12-18T12:42:34;72.73;;;49.57;;
59089;SDS011;44878;50.102;18.982;2022-12-18T12:45:40;79.93;;;56.50;;
59089;SDS011;44878;50.102;18.982;2022-12-18T12:48:37;78.50;;;55.27;;
59089;SDS011;44878;50.102;18.982;2022-12-18T12:51:12;73.07;;;54.10;;
59089;SDS011;44878;50.102;18.982;2022-12-18T12:53:47;81.50;;;55.13;;
59089;SDS011;44878;50.102;18.982;2022-12-18T13:01:18;83.70;;;59.13;;
59089;SDS011;44878;50.102;18.982;2022-12-18T13:04:13;80.27;;;56.23;;
59089;SDS011;44878;50.102;18.982;2022-12-18T13:07:39;83.20;;;58.53;;
59089;SDS011;44878;50.102;18.982;2022-12-18T13:12:55;85.00;;;59.30;;
59089;SDS011;44878;50.102;18.982;2022-12-18T13:15:27;83.40;;;58.63;;
59089;SDS011;44878;50.102;18.982;2022-12-18T13:20:36;83.47;;;59.37;;
59089;SDS011;44878;50.102;18.982;2022-12-18T13:23:45;90.57;;;61.00;;
59089;SDS011;44878;50.102;18.982;2022-12-18T13:31:10;84.67;;;58.77;;
59089;SDS011;44878;50.102;18.982;2022-12-18T13:33:39;84.82;;;58.47;;
59089;SDS011;44878;50.102;18.982;2022-12-18T13:36:11;83.05;;;60.38;;
59089;SDS011;44878;50.102;18.982;2022-12-18T13:38:41;88.20;;;63.10;;
59089;SDS011;44878;50.102;18.982;2022-12-18T13:43:44;86.40;;;59.77;;
59089;SDS011;44878;50.102;18.982;2022-12-18T13:46:23;90.23;;;62.80;;
59089;SDS011;44878;50.102;18.982;2022-12-18T13:51:51;88.53;;;62.37;;
59089;SDS011;44878;50.102;18.982;2022-12-18T13:54:34;89.93;;;66.00;;
59089;SDS011;44878;50.102;18.982;2022-12-18T13:57:03;84.23;;;60.67;;
59089;SDS011;44878;50.102;18.982;2022-12-18T13:59:35;85.17;;;62.20;;
59089;SDS011;44878;50.102;18.982;2022-12-18T14:02:13;86.97;;;64.73;;
59089;SDS011;44878;50.102;18.982;2022-12-18T14:04:47;84.50;;;61.23;;
59089;SDS011;44878;50.102;18.982;2022-12-18T14:07:21;89.10;;;64.47;;
59089;SDS011;44878;50.102;18.982;2022-12-18T14:09:50;84.23;;;62.43;;
59089;SDS011;44878;50.102;18.982;2022-12-18T14:12:19;83.60;;;60.60;;
59089;SDS011;44878;50.102;18.982;2022-12-18T14:15:17;81.33;;;59.77;;
59089;SDS011;44878;50.102;18.982;2022-12-18T14:17:49;82.83;;;60.83;;
59089;SDS011;44878;50.102;18.982;2022-12-18T14:20:16;86.50;;;63.03;;
59089;SDS011;44878;50.102;18.982;2022-12-18T14:22:46;90.97;;;64.57;;
59089;SDS011;44878;50.102;18.982;2022-12-18T14:25:18;90.73;;;64.63;;
59089;SDS011;44878;50.102;18.982;2022-12-18T14:27:50;86.30;;;62.00;;
59089;SDS011;44878;50.102;18.982;2022-12-18T14:30:25;87.40;;;63.57;;
59089;SDS011;44878;50.102;18.982;2022-12-18T14:33:01;90.47;;;67.43;;
59089;SDS011;44878;50.102;18.982;2022-12-18T14:36:00;87.67;;;64.73;;
59089;SDS011;44878;50.102;18.982;2022-12-18T14:38:29;89.63;;;65.43;;
59089;SDS011;44878;50.102;18.982;2022-12-18T14:41:06;86.57;;;63.90;;
59089;SDS011;44878;50.102;18.982;2022-12-18T14:43:40;90.30;;;64.50;;
59089;SDS011;44878;50.102;18.982;2022-12-18T14:46:27;91.87;;;69.13;;
59089;SDS011;44878;50.102;18.982;2022-12-18T14:49:14;97.47;;;70.87;;
59089;SDS011;44878;50.102;18.982;2022-12-18T14:51:57;99.67;;;75.53;;
59089;SDS011;44878;50.102;18.982;2022-12-18T14:54:25;99.73;;;75.90;;
59089;SDS011;44878;50.102;18.982;2022-12-18T14:57:05;96.83;;;70.50;;
59089;SDS011;44878;50.102;18.982;2022-12-18T14:59:46;105.10;;;76.87;;
59089;SDS011;44878;50.102;18.982;2022-12-18T15:02:23;101.23;;;72.87;;
59089;SDS011;44878;50.102;18.982;2022-12-18T15:05:05;108.80;;;82.57;;
59089;SDS011;44878;50.102;18.982;2022-12-18T15:07:50;100.63;;;73.03;;
59089;SDS011;44878;50.102;18.982;2022-12-18T15:10:21;93.77;;;69.20;;
59089;SDS011;44878;50.102;18.982;2022-12-18T15:20:40;102.90;;;75.53;;
59089;SDS011;44878;50.102;18.982;2022-12-18T15:26:21;100.40;;;75.53;;
59089;SDS011;44878;50.102;18.982;2022-12-18T15:31:24;105.93;;;80.67;;
59089;SDS011;44878;50.102;18.982;2022-12-18T15:36:35;114.25;;;86.53;;
59089;SDS011;44878;50.102;18.982;2022-12-18T15:39:05;114.45;;;89.78;;
59089;SDS011;44878;50.102;18.982;2022-12-18T15:41:32;120.93;;;91.07;;
59089;SDS011;44878;50.102;18.982;2022-12-18T15:44:01;115.60;;;85.63;;
59089;SDS011;44878;50.102;18.982;2022-12-18T15:46:29;117.93;;;89.43;;
59089;SDS011;44878;50.102;18.982;2022-12-18T15:51:28;117.60;;;87.53;;
59089;SDS011;44878;50.102;18.982;2022-12-18T15:53:59;120.87;;;91.13;;
59089;SDS011;44878;50.102;18.982;2022-12-18T15:56:31;127.40;;;91.03;;
59089;SDS011;44878;50.102;18.982;2022-12-18T15:59:18;118.30;;;87.00;;
59089;SDS011;44878;50.102;18.982;2022-12-18T16:01:46;120.00;;;90.80;;
59089;SDS011;44878;50.102;18.982;2022-12-18T16:04:17;125.43;;;93.00;;
59089;SDS011;44878;50.102;18.982;2022-12-18T16:06:50;120.97;;;89.90;;
59089;SDS011;44878;50.102;18.982;2022-12-18T16:09:21;121.90;;;94.27;;
59089;SDS011;44878;50.102;18.982;2022-12-18T16:11:49;121.85;;;93.43;;
59089;SDS011;44878;50.102;18.982;2022-12-18T16:14:22;126.70;;;95.57;;
59089;SDS011;44878;50.102;18.982;2022-12-18T16:16:57;123.03;;;95.03;;
59089;SDS011;44878;50.102;18.982;2022-12-18T16:19:27;125.60;;;93.60;;
59089;SDS011;44878;50.102;18.982;2022-12-18T16:21:56;114.73;;;85.00;;
59089;SDS011;44878;50.102;18.982;2022-12-18T16:24:34;110.70;;;85.73;;
59089;SDS011;44878;50.102;18.982;2022-12-18T16:27:02;116.13;;;88.80;;
59089;SDS011;44878;50.102;18.982;2022-12-18T16:31:59;111.27;;;87.53;;
59089;SDS011;44878;50.102;18.982;2022-12-18T16:34:28;110.57;;;84.73;;
59089;SDS011;44878;50.102;18.982;2022-12-18T16:36:57;105.70;;;80.30;;
59089;SDS011;44878;50.102;18.982;2022-12-18T16:39:29;111.80;;;84.60;;